Time;durP1;ratioP1;P1;durP2;ratioP2;P2;SDS_P1;SDS_P2;PMS_P1;PMS_P2;Temp;Humidity;BMP_temperature;BMP_pressure;BME280_temperature;BME280_humidity;BME280_pressure;Samples;Min_cycle;Max_cycle;Signal;HPM_P1;HPM_P2
2022/08/23 00:02:20;;;;;;;4.90;4.37;;;;;;;;;;5011738;28;20425;-82
2022/08/23 00:04:45;;;;;;;4.23;3.93;;;;;;;;;;5011005;28;20188;-83
2022/08/23 00:07:12;;;;;;;4.30;3.90;;;;;;;;;;5010586;28;20397;-82
2022/08/23 00:09:37;;;;;;;4.13;3.73;;;;;;;;;;5007583;28;20211;-83
2022/08/23 00:12:03;;;;;;;4.60;4.20;;;;;;;;;;4992395;28;20178;-83
2022/08/23 00:14:30;;;;;;;5.50;4.30;;;;;;;;;;5003776;28;20175;-83
2022/08/23 00:16:56;;;;;;;4.70;4.20;;;;;;;;;;5011416;28;20178;-83
2022/08/23 00:19:22;;;;;;;3.93;3.57;;;;;;;;;;5017001;28;20200;-81
2022/08/23 00:21:49;;;;;;;4.27;3.77;;;;;;;;;;5021041;28;20178;-83
2022/08/23 00:24:14;;;;;;;4.93;4.30;;;;;;;;;;5010628;28;20185;-83
2022/08/23 00:26:49;;;;;;;4.47;4.07;;;;;;;;;;5007337;28;20180;-81
2022/08/23 00:29:14;;;;;;;4.90;4.33;;;;;;;;;;5007123;28;20181;-83
2022/08/23 00:31:39;;;;;;;4.47;4.07;;;;;;;;;;5009426;28;20187;-82
2022/08/23 00:34:05;;;;;;;4.80;4.27;;;;;;;;;;5002006;28;20230;-80
2022/08/23 00:36:30;;;;;;;4.97;4.27;;;;;;;;;;5010341;28;20188;-83
2022/08/23 00:38:55;;;;;;;3.83;3.53;;;;;;;;;;5011470;28;20194;-82
2022/08/23 00:41:20;;;;;;;4.43;3.90;;;;;;;;;;5009766;28;20183;-83
2022/08/23 00:49:22;;;;;;;4.93;4.00;;;;;;;;;;4991599;28;20190;-83
2022/08/23 00:51:53;;;;;;;4.87;4.03;;;;;;;;;;5006808;28;20265;-83
2022/08/23 00:54:19;;;;;;;4.17;3.70;;;;;;;;;;5006328;28;20291;-83
2022/08/23 00:56:44;;;;;;;4.30;3.63;;;;;;;;;;5006793;28;20222;-83
2022/08/23 00:59:10;;;;;;;4.10;3.70;;;;;;;;;;4990954;28;20224;-83
2022/08/23 01:01:35;;;;;;;4.13;3.73;;;;;;;;;;4992025;28;20193;-83
2022/08/23 01:04:00;;;;;;;3.73;3.30;;;;;;;;;;4990309;28;20266;-81
2022/08/23 01:06:25;;;;;;;5.23;4.43;;;;;;;;;;5006497;28;20186;-81
2022/08/23 01:08:56;;;;;;;4.43;3.80;;;;;;;;;;5006278;28;20242;-82
2022/08/23 01:11:34;;;;;;;4.73;3.77;;;;;;;;;;5006543;28;20533;-81
2022/08/23 01:14:02;;;;;;;3.50;3.20;;;;;;;;;;5014236;28;20209;-81
2022/08/23 01:16:33;;;;;;;3.80;3.50;;;;;;;;;;5009701;28;20178;-82
2022/08/23 01:18:59;;;;;;;3.77;3.43;;;;;;;;;;5011686;28;20174;-82
2022/08/23 01:21:36;;;;;;;4.70;3.83;;;;;;;;;;5026107;28;20236;-82
2022/08/23 01:24:02;;;;;;;3.37;3.07;;;;;;;;;;5010450;28;20174;-81
2022/08/23 01:26:30;;;;;;;4.20;3.20;;;;;;;;;;5011114;28;20177;-83
2022/08/23 01:28:56;;;;;;;4.90;3.70;;;;;;;;;;5009764;28;20187;-83
2022/08/23 01:31:22;;;;;;;4.47;3.47;;;;;;;;;;5009400;28;20220;-82
2022/08/23 01:33:54;;;;;;;4.53;3.90;;;;;;;;;;5001430;28;20233;-83
2022/08/23 01:36:20;;;;;;;6.03;4.50;;;;;;;;;;5009381;28;20179;-81
2022/08/23 01:38:46;;;;;;;5.17;4.00;;;;;;;;;;5009416;28;20185;-83
2022/08/23 01:41:11;;;;;;;4.27;3.93;;;;;;;;;;5009309;28;20181;-83
2022/08/23 01:43:37;;;;;;;5.03;4.10;;;;;;;;;;5009529;28;20216;-81
2022/08/23 01:46:06;;;;;;;4.77;4.23;;;;;;;;;;5009511;28;20177;-83
2022/08/23 01:48:31;;;;;;;4.57;4.10;;;;;;;;;;5008902;28;20179;-82
2022/08/23 01:50:57;;;;;;;4.37;3.97;;;;;;;;;;5007895;28;20469;-81
2022/08/23 01:53:22;;;;;;;4.53;4.07;;;;;;;;;;5006297;28;20179;-82
2022/08/23 01:55:47;;;;;;;6.60;4.60;;;;;;;;;;5006260;28;20189;-81
2022/08/23 01:58:13;;;;;;;5.00;4.00;;;;;;;;;;5019156;28;20212;-80
2022/08/23 02:00:39;;;;;;;4.80;4.10;;;;;;;;;;5010129;28;20219;-83
2022/08/23 02:03:05;;;;;;;5.20;4.10;;;;;;;;;;5008688;28;20382;-80
2022/08/23 02:05:31;;;;;;;5.93;4.60;;;;;;;;;;5010523;28;20177;-82
2022/08/23 02:08:59;;;;;;;5.83;4.33;;;;;;;;;;5008305;28;20389;-81
2022/08/23 02:10:42;;;;;;;5.93;3.97;;;;;;;;;;4990787;28;20207;-82
2022/08/23 02:13:07;;;;;;;5.03;4.23;;;;;;;;;;4990785;28;20230;-83
2022/08/23 02:15:33;;;;;;;5.23;4.17;;;;;;;;;;5002551;28;20174;-84
2022/08/23 02:17:58;;;;;;;4.97;4.20;;;;;;;;;;5009351;28;20174;-82
2022/08/23 02:20:24;;;;;;;4.20;3.67;;;;;;;;;;5009428;28;20187;-81
2022/08/23 02:22:49;;;;;;;4.67;3.70;;;;;;;;;;5009093;28;20180;-80
2022/08/23 02:25:14;;;;;;;4.30;3.90;;;;;;;;;;5006095;28;20187;-83
2022/08/23 02:27:39;;;;;;;4.17;3.77;;;;;;;;;;4989516;28;20186;-82
2022/08/23 02:30:06;;;;;;;3.90;3.60;;;;;;;;;;4991571;28;20201;-83
2022/08/23 02:32:31;;;;;;;4.00;3.27;;;;;;;;;;4994454;28;20175;-83
2022/08/23 02:34:56;;;;;;;4.03;3.73;;;;;;;;;;5024382;28;20203;-83
2022/08/23 02:37:21;;;;;;;4.93;3.93;;;;;;;;;;5012635;28;20234;-80
2022/08/23 02:39:47;;;;;;;4.17;3.77;;;;;;;;;;5013621;28;20166;-83
2022/08/23 02:42:13;;;;;;;5.93;4.10;;;;;;;;;;5010389;28;20486;-82
2022/08/23 02:44:38;;;;;;;4.30;3.90;;;;;;;;;;5012085;28;20233;-80
2022/08/23 02:47:06;;;;;;;4.03;3.70;;;;;;;;;;5012613;28;20224;-83
2022/08/23 02:49:31;;;;;;;5.40;3.87;;;;;;;;;;5012189;28;20196;-83
2022/08/23 02:51:57;;;;;;;4.97;4.50;;;;;;;;;;5012129;28;20178;-84
2022/08/23 02:54:22;;;;;;;4.43;3.67;;;;;;;;;;5012502;28;20176;-79
2022/08/23 02:56:47;;;;;;;4.10;3.50;;;;;;;;;;5013193;28;20173;-82
2022/08/23 02:59:13;;;;;;;4.13;3.77;;;;;;;;;;5007780;28;20234;-83
2022/08/23 03:01:39;;;;;;;3.77;3.43;;;;;;;;;;4992505;28;20178;-82
2022/08/23 03:04:06;;;;;;;5.67;3.40;;;;;;;;;;4992781;28;20191;-82
2022/08/23 03:06:31;;;;;;;3.90;3.33;;;;;;;;;;4993459;28;20177;-83
2022/08/23 03:08:56;;;;;;;5.50;3.60;;;;;;;;;;4992396;28;20232;-82
2022/08/23 03:11:22;;;;;;;4.27;3.80;;;;;;;;;;4992518;28;20474;-84
2022/08/23 03:13:48;;;;;;;4.70;3.13;;;;;;;;;;4998119;28;20172;-80
2022/08/23 03:16:14;;;;;;;3.77;3.47;;;;;;;;;;5008163;28;20188;-83
2022/08/23 03:18:40;;;;;;;4.57;3.17;;;;;;;;;;4993060;28;20182;-83
2022/08/23 03:21:06;;;;;;;4.50;3.50;;;;;;;;;;5029960;28;20179;-82
2022/08/23 03:23:31;;;;;;;3.40;3.10;;;;;;;;;;5012644;28;20201;-83
2022/08/23 03:25:58;;;;;;;3.70;2.90;;;;;;;;;;5011972;28;20176;-81
2022/08/23 03:28:23;;;;;;;3.23;3.03;;;;;;;;;;5010975;28;20176;-82
2022/08/23 03:30:48;;;;;;;3.80;2.70;;;;;;;;;;5012876;28;20207;-81
2022/08/23 03:33:14;;;;;;;4.40;3.27;;;;;;;;;;5004819;28;20180;-83
2022/08/23 03:35:39;;;;;;;3.97;2.93;;;;;;;;;;5011487;28;20172;-83
2022/08/23 03:38:07;;;;;;;3.97;3.00;;;;;;;;;;5011375;28;20169;-84
2022/08/23 03:40:33;;;;;;;3.33;3.03;;;;;;;;;;5011298;28;20176;-83
2022/08/23 03:43:00;;;;;;;3.27;2.80;;;;;;;;;;5010281;28;20253;-83
2022/08/23 03:45:25;;;;;;;2.73;2.53;;;;;;;;;;5012321;28;20422;-84
2022/08/23 03:47:50;;;;;;;3.30;3.00;;;;;;;;;;5012407;28;20295;-84
2022/08/23 03:50:16;;;;;;;5.17;3.23;;;;;;;;;;5007796;28;20303;-82
2022/08/23 03:52:41;;;;;;;3.17;2.87;;;;;;;;;;5008265;28;20172;-83
2022/08/23 03:55:06;;;;;;;4.30;3.03;;;;;;;;;;5007951;28;20181;-83
2022/08/23 03:57:32;;;;;;;3.37;3.10;;;;;;;;;;4999709;28;20173;-84
2022/08/23 03:59:58;;;;;;;4.00;3.20;;;;;;;;;;5010581;28;20242;-81
2022/08/23 04:02:24;;;;;;;3.27;2.97;;;;;;;;;;5011174;28;20177;-81
2022/08/23 04:04:52;;;;;;;3.67;3.33;;;;;;;;;;5011778;28;20168;-83
2022/08/23 04:07:18;;;;;;;3.17;2.50;;;;;;;;;;5007738;28;20185;-83
2022/08/23 04:09:43;;;;;;;3.70;3.40;;;;;;;;;;4992205;28;20177;-82
2022/08/23 04:12:08;;;;;;;4.70;3.33;;;;;;;;;;4992210;28;20172;-83
2022/08/23 04:14:34;;;;;;;3.27;3.00;;;;;;;;;;5004632;28;20181;-83
2022/08/23 04:17:00;;;;;;;3.40;3.00;;;;;;;;;;5011710;28;20165;-84
2022/08/23 04:19:25;;;;;;;4.33;3.17;;;;;;;;;;5010617;28;20165;-83
2022/08/23 04:21:51;;;;;;;2.77;2.57;;;;;;;;;;5019555;28;20230;-82
2022/08/23 04:24:17;;;;;;;3.60;2.83;;;;;;;;;;5021523;28;20181;-82
2022/08/23 04:26:43;;;;;;;3.43;2.83;;;;;;;;;;5003702;28;20176;-82
2022/08/23 04:29:10;;;;;;;3.63;2.93;;;;;;;;;;5011653;28;20234;-80
2022/08/23 04:31:35;;;;;;;3.60;2.90;;;;;;;;;;5008230;28;20207;-82
2022/08/23 04:34:01;;;;;;;3.40;3.10;;;;;;;;;;5014827;28;20193;-81
2022/08/23 04:36:28;;;;;;;4.30;2.90;;;;;;;;;;5010525;28;20179;-82
2022/08/23 04:38:54;;;;;;;4.70;3.10;;;;;;;;;;5010466;28;20207;-84
2022/08/23 04:44:04;;;;;;;7.83;3.10;;;;;;;;;;5011701;28;20182;-83
2022/08/23 04:46:29;;;;;;;3.37;2.77;;;;;;;;;;5010158;28;20171;-82
2022/08/23 04:48:54;;;;;;;4.03;3.07;;;;;;;;;;5010121;28;20257;-81
2022/08/23 04:51:21;;;;;;;3.30;3.00;;;;;;;;;;5010324;28;20208;-81
2022/08/23 04:53:46;;;;;;;3.17;2.87;;;;;;;;;;5008908;28;20175;-81
2022/08/23 04:56:11;;;;;;;3.20;2.83;;;;;;;;;;5009832;28;20168;-83
2022/08/23 04:58:37;;;;;;;3.07;2.87;;;;;;;;;;5006540;28;20183;-83
2022/08/23 05:01:04;;;;;;;3.10;2.80;;;;;;;;;;4991357;28;20247;-83
2022/08/23 05:03:30;;;;;;;4.23;2.80;;;;;;;;;;4990374;28;20218;-81
2022/08/23 05:05:56;;;;;;;4.03;2.93;;;;;;;;;;4990500;28;20185;-83
2022/08/23 05:08:22;;;;;;;2.73;2.53;;;;;;;;;;5006552;28;20175;-82
2022/08/23 05:10:47;;;;;;;3.00;2.70;;;;;;;;;;5006285;28;20204;-79
2022/08/23 05:13:12;;;;;;;3.10;2.80;;;;;;;;;;4992585;28;20166;-82
2022/08/23 05:15:37;;;;;;;4.23;2.73;;;;;;;;;;5007486;28;20194;-81
2022/08/23 05:18:03;;;;;;;2.80;2.60;;;;;;;;;;5010919;28;20174;-83
2022/08/23 05:20:28;;;;;;;3.70;2.80;;;;;;;;;;5011079;28;20191;-82
2022/08/23 05:22:54;;;;;;;3.30;3.00;;;;;;;;;;5012378;28;20239;-82
2022/08/23 05:25:20;;;;;;;4.20;3.37;;;;;;;;;;5009219;28;20216;-81
2022/08/23 05:27:45;;;;;;;3.10;2.80;;;;;;;;;;5009636;28;20262;-83
2022/08/23 05:30:11;;;;;;;4.23;3.30;;;;;;;;;;5009416;28;20217;-82
2022/08/23 05:32:36;;;;;;;3.20;2.90;;;;;;;;;;5003932;28;20204;-80
2022/08/23 05:35:01;;;;;;;3.57;3.03;;;;;;;;;;5021736;28;20235;-83
2022/08/23 05:37:26;;;;;;;3.47;3.17;;;;;;;;;;5009450;28;20206;-81
2022/08/23 05:39:51;;;;;;;5.80;3.13;;;;;;;;;;5009093;28;20174;-83
2022/08/23 05:42:17;;;;;;;3.83;2.83;;;;;;;;;;5009414;28;20471;-83
2022/08/23 05:44:42;;;;;;;4.83;2.90;;;;;;;;;;5009460;28;20178;-81
2022/08/23 05:47:09;;;;;;;5.60;3.33;;;;;;;;;;5010825;28;20174;-83
2022/08/23 05:49:37;;;;;;;3.13;2.83;;;;;;;;;;5009743;28;20256;-80
2022/08/23 05:52:07;;;;;;;7.30;3.57;;;;;;;;;;5010323;28;20170;-82
2022/08/23 05:54:33;;;;;;;3.40;3.10;;;;;;;;;;5009494;28;20237;-81
2022/08/23 05:56:58;;;;;;;4.00;2.83;;;;;;;;;;5010493;28;20201;-82
2022/08/23 05:59:23;;;;;;;4.10;3.43;;;;;;;;;;5008586;28;20270;-82
2022/08/23 06:01:48;;;;;;;3.83;3.43;;;;;;;;;;5009268;28;20179;-81
2022/08/23 06:04:14;;;;;;;3.40;3.10;;;;;;;;;;5010699;28;20169;-83
2022/08/23 06:06:40;;;;;;;2.87;2.67;;;;;;;;;;5009521;28;20189;-82
2022/08/23 06:09:07;;;;;;;3.17;2.87;;;;;;;;;;4993647;28;20179;-83
2022/08/23 06:11:32;;;;;;;4.57;3.00;;;;;;;;;;5009684;28;20215;-83
2022/08/23 06:14:01;;;;;;;3.10;2.80;;;;;;;;;;5001029;28;20189;-83
2022/08/23 06:16:29;;;;;;;3.00;2.80;;;;;;;;;;5014114;28;20177;-83
2022/08/23 06:18:55;;;;;;;4.27;2.90;;;;;;;;;;5015438;28;20183;-84
2022/08/23 06:21:20;;;;;;;4.83;3.20;;;;;;;;;;5027100;28;20174;-83
2022/08/23 06:23:48;;;;;;;5.20;2.83;;;;;;;;;;5009709;28;20250;-82
2022/08/23 06:26:15;;;;;;;3.30;3.10;;;;;;;;;;4994881;28;20185;-81
2022/08/23 06:28:42;;;;;;;3.47;3.17;;;;;;;;;;4993047;28;20180;-82
2022/08/23 06:31:07;;;;;;;4.70;3.40;;;;;;;;;;4992968;28;20482;-83
2022/08/23 06:33:32;;;;;;;3.40;2.80;;;;;;;;;;5010586;28;20282;-84
2022/08/23 06:36:03;;;;;;;3.50;3.07;;;;;;;;;;5012660;28;20176;-83
2022/08/23 06:38:29;;;;;;;5.17;3.40;;;;;;;;;;5013746;28;20177;-84
2022/08/23 06:41:09;;;;;;;4.33;2.70;;;;;;;;;;5012236;28;20183;-79
2022/08/23 06:43:35;;;;;;;4.33;3.23;;;;;;;;;;5004491;28;20277;-81
2022/08/23 06:46:07;;;;;;;4.60;3.07;;;;;;;;;;5012436;28;20202;-80
2022/08/23 06:48:33;;;;;;;3.00;2.70;;;;;;;;;;5013474;28;20175;-81
2022/08/23 06:50:58;;;;;;;3.43;3.13;;;;;;;;;;5012415;28;20211;-81
2022/08/23 06:53:23;;;;;;;3.23;2.83;;;;;;;;;;5013071;28;20167;-81
2022/08/23 06:55:48;;;;;;;3.70;2.90;;;;;;;;;;5011966;28;20176;-81
2022/08/23 06:58:13;;;;;;;4.67;3.30;;;;;;;;;;5001017;28;20324;-80
2022/08/23 07:00:39;;;;;;;3.50;3.20;;;;;;;;;;5008334;28;20321;-81
2022/08/23 07:03:04;;;;;;;3.67;3.37;;;;;;;;;;4993579;28;20199;-80
2022/08/23 07:05:30;;;;;;;3.43;3.10;;;;;;;;;;4993708;28;20168;-81
2022/08/23 07:07:55;;;;;;;4.93;3.07;;;;;;;;;;4993890;28;20186;-81
2022/08/23 07:10:20;;;;;;;3.50;3.20;;;;;;;;;;4993299;28;20198;-79
2022/08/23 07:12:45;;;;;;;3.53;3.23;;;;;;;;;;4993153;28;20173;-81
2022/08/23 07:15:11;;;;;;;4.13;3.20;;;;;;;;;;5006931;28;20180;-81
2022/08/23 07:17:36;;;;;;;4.33;3.13;;;;;;;;;;5010662;28;20213;-79
2022/08/23 07:20:02;;;;;;;3.27;2.87;;;;;;;;;;5023349;28;20175;-80
2022/08/23 07:22:27;;;;;;;3.63;2.97;;;;;;;;;;5017332;28;20180;-81
2022/08/23 07:24:52;;;;;;;4.03;3.73;;;;;;;;;;5011839;28;20199;-81
2022/08/23 07:27:18;;;;;;;3.63;3.00;;;;;;;;;;5012500;28;20168;-82
2022/08/23 07:29:43;;;;;;;10.70;3.67;;;;;;;;;;5012322;28;20196;-81
2022/08/23 07:32:08;;;;;;;4.20;3.50;;;;;;;;;;5001837;28;20181;-81
2022/08/23 07:34:33;;;;;;;3.50;3.20;;;;;;;;;;5020242;28;20208;-81
2022/08/23 07:37:00;;;;;;;6.90;4.20;;;;;;;;;;5012668;28;20183;-82
2022/08/23 07:39:25;;;;;;;4.07;3.70;;;;;;;;;;5012438;28;20179;-82
2022/08/23 07:41:51;;;;;;;4.60;3.60;;;;;;;;;;5011017;28;20182;-83
2022/08/23 07:44:16;;;;;;;4.30;3.90;;;;;;;;;;5011258;28;20261;-82
2022/08/23 07:46:42;;;;;;;4.60;3.60;;;;;;;;;;5011338;28;20188;-83
2022/08/23 07:49:08;;;;;;;3.63;3.10;;;;;;;;;;5008186;28;20301;-84
2022/08/23 07:51:34;;;;;;;4.60;3.63;;;;;;;;;;4991594;28;20209;-82
2022/08/23 07:54:01;;;;;;;4.87;3.80;;;;;;;;;;4991670;28;20178;-83
2022/08/23 07:56:26;;;;;;;4.70;3.93;;;;;;;;;;4992485;28;20170;-83
2022/08/23 07:58:52;;;;;;;5.17;3.83;;;;;;;;;;5010430;28;20180;-82
2022/08/23 08:01:20;;;;;;;6.20;5.70;;;;;;;;;;5012035;28;20224;-84
2022/08/23 08:03:47;;;;;;;4.23;3.43;;;;;;;;;;5012269;28;20221;-82
2022/08/23 08:06:24;;;;;;;3.43;3.13;;;;;;;;;;4999929;28;20186;-83
2022/08/23 08:08:49;;;;;;;3.83;3.53;;;;;;;;;;4993090;28;20187;-80
2022/08/23 08:11:16;;;;;;;4.47;3.60;;;;;;;;;;5007416;28;20272;-83
2022/08/23 08:13:42;;;;;;;4.80;3.67;;;;;;;;;;4997482;28;20178;-84
2022/08/23 08:16:08;;;;;;;4.57;3.63;;;;;;;;;;5011956;28;20181;-81
2022/08/23 08:18:37;;;;;;;5.30;2.80;;;;;;;;;;5010615;28;20279;-83
2022/08/23 08:21:02;;;;;;;5.73;3.60;;;;;;;;;;4997061;28;20189;-82
2022/08/23 08:23:28;;;;;;;3.50;3.20;;;;;;;;;;5011709;28;20241;-83
2022/08/23 08:26:04;;;;;;;3.80;3.33;;;;;;;;;;4990993;28;20181;-83
2022/08/23 08:28:30;;;;;;;4.93;3.40;;;;;;;;;;4991765;28;20178;-82
2022/08/23 08:30:57;;;;;;;6.10;4.50;;;;;;;;;;5007265;28;20198;-83
2022/08/23 08:33:23;;;;;;;3.60;3.30;;;;;;;;;;5002017;28;20231;-83
2022/08/23 08:35:48;;;;;;;4.80;3.60;;;;;;;;;;5009925;28;20265;-82
2022/08/23 08:38:13;;;;;;;5.93;3.10;;;;;;;;;;5010091;28;20181;-82
2022/08/23 08:40:39;;;;;;;3.93;3.47;;;;;;;;;;5003363;28;20175;-83
2022/08/23 08:43:23;;;;;;;5.13;3.67;;;;;;;;;;5010107;28;20245;-84
2022/08/23 08:45:57;;;;;;;4.50;3.30;;;;;;;;;;5011242;28;20233;-83
2022/08/23 08:48:24;;;;;;;4.10;3.13;;;;;;;;;;5009737;28;20232;-82
2022/08/23 08:51:02;;;;;;;4.13;3.60;;;;;;;;;;5011027;28;20206;-82
2022/08/23 08:53:30;;;;;;;3.73;3.13;;;;;;;;;;5010223;28;20266;-84
2022/08/23 08:56:13;;;;;;;3.10;2.90;;;;;;;;;;5009542;28;20191;-82
2022/08/23 08:58:42;;;;;;;4.60;3.33;;;;;;;;;;5006305;28;20235;-84
2022/08/23 09:01:07;;;;;;;4.93;3.30;;;;;;;;;;5006567;28;20198;-83
2022/08/23 09:03:33;;;;;;;4.43;3.33;;;;;;;;;;5006633;28;20176;-84
2022/08/23 09:06:01;;;;;;;4.45;3.38;;;;;;;;;;4991382;28;20182;-81
2022/08/23 09:08:37;;;;;;;4.40;3.30;;;;;;;;;;4991364;28;20179;-81
2022/08/23 09:11:07;;;;;;;7.05;3.30;;;;;;;;;;5006590;28;20206;-84
2022/08/23 09:13:42;;;;;;;5.45;3.70;;;;;;;;;;4995653;28;20171;-83
2022/08/23 09:16:13;;;;;;;7.68;3.47;;;;;;;;;;5009782;28;20181;-85
2022/08/23 09:18:39;;;;;;;4.28;2.92;;;;;;;;;;5009549;28;20175;-84
2022/08/23 09:21:05;;;;;;;4.70;2.87;;;;;;;;;;5011932;28;20324;-84
2022/08/23 09:23:35;;;;;;;3.35;3.03;;;;;;;;;;5001348;28;20249;-84
2022/08/23 09:26:03;;;;;;;5.95;3.00;;;;;;;;;;5010813;28;20171;-84
2022/08/23 09:28:29;;;;;;;3.30;3.00;;;;;;;;;;5010657;28;20202;-84
2022/08/23 09:30:56;;;;;;;3.42;2.70;;;;;;;;;;5001077;28;20204;-84
2022/08/23 09:33:23;;;;;;;3.97;3.10;;;;;;;;;;5016566;28;20171;-84
2022/08/23 09:36:03;;;;;;;3.45;3.15;;;;;;;;;;5009546;28;20176;-85
2022/08/23 09:38:28;;;;;;;4.07;3.10;;;;;;;;;;5009189;28;20203;-81
2022/08/23 09:40:54;;;;;;;3.88;3.03;;;;;;;;;;5012682;28;20222;-82
2022/08/23 09:43:25;;;;;;;4.60;3.42;;;;;;;;;;5013551;28;20269;-84
2022/08/23 09:45:50;;;;;;;3.70;3.08;;;;;;;;;;5013693;28;20179;-84
2022/08/23 09:48:35;;;;;;;5.40;3.08;;;;;;;;;;5001157;28;20187;-83
2022/08/23 09:51:06;;;;;;;3.42;2.80;;;;;;;;;;5009898;28;20203;-84
2022/08/23 09:53:32;;;;;;;3.45;3.13;;;;;;;;;;5010169;28;20500;-85
2022/08/23 09:56:08;;;;;;;3.58;3.00;;;;;;;;;;4995164;28;20168;-84
2022/08/23 09:58:45;;;;;;;4.97;2.65;;;;;;;;;;5025785;28;20237;-83
2022/08/23 10:01:17;;;;;;;4.63;3.13;;;;;;;;;;5027148;28;20202;-81
2022/08/23 10:04:02;;;;;;;5.47;2.30;;;;;;;;;;5029634;28;20458;-83
2022/08/23 10:06:29;;;;;;;5.35;4.18;;;;;;;;;;4994423;28;20188;-82
2022/08/23 10:08:59;;;;;;;3.60;2.78;;;;;;;;;;4993743;28;20176;-81
2022/08/23 10:11:28;;;;;;;3.65;2.78;;;;;;;;;;4994757;28;20192;-81
2022/08/23 10:13:53;;;;;;;7.20;2.78;;;;;;;;;;5002995;28;20183;-82
2022/08/23 10:16:25;;;;;;;2.58;2.38;;;;;;;;;;5029972;28;20176;-81
2022/08/23 10:18:56;;;;;;;6.20;2.80;;;;;;;;;;5015419;28;20265;-82
2022/08/23 10:21:25;;;;;;;5.32;3.03;;;;;;;;;;5027582;28;20172;-84
2022/08/23 10:24:17;;;;;;;3.90;2.70;;;;;;;;;;5014253;28;20190;-82
2022/08/23 10:26:54;;;;;;;5.10;2.33;;;;;;;;;;4997218;28;20210;-81
2022/08/23 10:29:37;;;;;;;4.60;3.10;;;;;;;;;;5014087;28;20171;-81
2022/08/23 10:32:03;;;;;;;3.00;2.63;;;;;;;;;;5029091;28;20295;-82
2022/08/23 10:34:41;;;;;;;4.15;2.70;;;;;;;;;;5029049;28;20259;-83
2022/08/23 10:37:22;;;;;;;4.45;2.83;;;;;;;;;;4994120;28;20180;-80
2022/08/23 10:39:56;;;;;;;3.17;2.78;;;;;;;;;;5010378;28;20180;-82
2022/08/23 10:42:30;;;;;;;2.90;2.42;;;;;;;;;;5013821;28;20172;-82
2022/08/23 10:44:58;;;;;;;3.65;2.80;;;;;;;;;;5013614;28;20167;-80
2022/08/23 10:47:37;;;;;;;5.10;3.13;;;;;;;;;;5012169;28;20203;-81
2022/08/23 10:50:07;;;;;;;2.85;2.42;;;;;;;;;;5012449;28;20204;-79
2022/08/23 10:52:35;;;;;;;3.58;2.72;;;;;;;;;;5012426;28;20175;-82
2022/08/23 10:55:15;;;;;;;3.47;2.80;;;;;;;;;;5009842;28;20188;-82
2022/08/23 10:57:42;;;;;;;2.90;2.30;;;;;;;;;;4993372;28;20176;-81
2022/08/23 11:00:11;;;;;;;3.97;2.75;;;;;;;;;;4993103;28;20290;-79
2022/08/23 11:02:49;;;;;;;3.00;2.35;;;;;;;;;;4993697;28;20177;-80
2022/08/23 11:05:20;;;;;;;3.00;2.70;;;;;;;;;;4993791;28;20176;-81
2022/08/23 11:07:59;;;;;;;3.83;2.75;;;;;;;;;;5008667;28;20176;-82
2022/08/23 11:10:25;;;;;;;2.72;2.50;;;;;;;;;;5008953;28;20216;-82
2022/08/23 11:12:55;;;;;;;2.65;2.45;;;;;;;;;;5000205;28;20180;-81
2022/08/23 11:15:26;;;;;;;6.13;2.90;;;;;;;;;;5011904;28;20180;-82
2022/08/23 11:17:52;;;;;;;4.72;2.45;;;;;;;;;;5012076;28;20171;-82
2022/08/23 11:20:37;;;;;;;3.05;2.78;;;;;;;;;;5011689;28;20182;-80
2022/08/23 11:23:03;;;;;;;5.95;3.10;;;;;;;;;;5030030;28;20183;-79
2022/08/23 11:25:28;;;;;;;4.72;2.80;;;;;;;;;;5028014;28;20246;-81
2022/08/23 11:28:12;;;;;;;3.05;2.70;;;;;;;;;;5011508;28;20179;-83
2022/08/23 11:30:42;;;;;;;5.45;2.90;;;;;;;;;;5012235;28;20196;-82
2022/08/23 11:33:26;;;;;;;2.80;2.55;;;;;;;;;;4993108;28;20172;-82
2022/08/23 11:35:53;;;;;;;3.22;2.92;;;;;;;;;;5011494;28;20195;-82
2022/08/23 11:38:37;;;;;;;5.20;2.70;;;;;;;;;;5011555;28;20226;-79
2022/08/23 11:41:12;;;;;;;2.97;2.70;;;;;;;;;;5027899;28;20179;-79
2022/08/23 11:43:38;;;;;;;3.53;2.40;;;;;;;;;;5005078;28;20178;-82
2022/08/23 11:46:15;;;;;;;5.43;3.20;;;;;;;;;;5008346;28;20187;-81
2022/08/23 11:48:47;;;;;;;3.30;2.63;;;;;;;;;;5007982;28;20185;-82
2022/08/23 11:51:27;;;;;;;4.72;2.75;;;;;;;;;;4991688;28;20262;-81
2022/08/23 11:53:52;;;;;;;4.28;2.72;;;;;;;;;;5007503;28;20180;-82
2022/08/23 11:56:40;;;;;;;2.70;2.50;;;;;;;;;;5007969;28;20172;-81
2022/08/23 11:59:15;;;;;;;3.28;2.90;;;;;;;;;;5008389;28;20479;-81
2022/08/23 12:01:40;;;;;;;4.05;2.85;;;;;;;;;;5010462;28;20183;-81
2022/08/23 12:04:32;;;;;;;5.07;2.70;;;;;;;;;;5000446;28;20227;-80
2022/08/23 12:07:02;;;;;;;2.80;2.47;;;;;;;;;;5005312;28;20190;-80
2022/08/23 12:09:28;;;;;;;3.10;2.80;;;;;;;;;;4992393;28;20223;-81
2022/08/23 12:11:56;;;;;;;3.55;2.55;;;;;;;;;;5009271;28;20231;-81
2022/08/23 12:14:30;;;;;;;4.47;2.30;;;;;;;;;;5010429;28;20175;-78
2022/08/23 12:16:57;;;;;;;10.68;3.05;;;;;;;;;;5011448;28;20171;-80
2022/08/23 12:19:49;;;;;;;2.90;2.55;;;;;;;;;;5010831;28;20174;-82
2022/08/23 12:22:16;;;;;;;2.72;2.53;;;;;;;;;;5007669;28;20194;-81
2022/08/23 12:25:02;;;;;;;3.63;2.50;;;;;;;;;;5030238;28;20167;-80
2022/08/23 12:27:40;;;;;;;4.00;2.85;;;;;;;;;;5029675;28;20194;-79
2022/08/23 12:30:08;;;;;;;2.90;2.45;;;;;;;;;;5031321;28;20195;-81
2022/08/23 12:32:42;;;;;;;2.80;2.60;;;;;;;;;;5020131;28;20242;-80
2022/08/23 12:35:26;;;;;;;2.50;2.25;;;;;;;;;;5010583;28;20495;-82
2022/08/23 12:37:58;;;;;;;3.83;2.60;;;;;;;;;;5001794;28;20238;-81
2022/08/23 12:40:30;;;;;;;3.05;2.55;;;;;;;;;;5012138;28;20251;-82
2022/08/23 12:43:04;;;;;;;4.38;2.90;;;;;;;;;;5010079;28;20232;-81
2022/08/23 12:45:35;;;;;;;2.80;2.60;;;;;;;;;;5010398;28;20258;-82
2022/08/23 12:48:01;;;;;;;2.72;2.20;;;;;;;;;;5009815;28;20179;-81
2022/08/23 12:50:29;;;;;;;3.40;2.28;;;;;;;;;;5010050;28;20218;-80
2022/08/23 12:53:15;;;;;;;2.70;2.42;;;;;;;;;;5009932;28;20189;-81
2022/08/23 12:55:46;;;;;;;4.30;2.92;;;;;;;;;;4993485;28;20184;-81
2022/08/23 12:58:12;;;;;;;3.42;2.72;;;;;;;;;;4991762;28;20211;-80
2022/08/23 13:00:42;;;;;;;2.80;2.50;;;;;;;;;;5006224;28;20232;-81
2022/08/23 13:03:27;;;;;;;3.13;2.83;;;;;;;;;;5006980;28;20215;-80
2022/08/23 13:06:01;;;;;;;4.30;2.85;;;;;;;;;;4991417;28;20172;-82
2022/08/23 13:08:52;;;;;;;2.78;2.58;;;;;;;;;;5006626;28;20184;-82
2022/08/23 13:11:18;;;;;;;3.60;2.50;;;;;;;;;;4987043;28;20287;-81
2022/08/23 13:13:44;;;;;;;2.63;2.42;;;;;;;;;;5009470;28;20323;-81
2022/08/23 13:16:24;;;;;;;2.53;2.33;;;;;;;;;;5009676;28;20235;-81
2022/08/23 13:18:49;;;;;;;2.75;2.55;;;;;;;;;;5012667;28;20178;-80
2022/08/23 13:21:16;;;;;;;2.83;2.63;;;;;;;;;;5026776;28;20166;-82
2022/08/23 13:23:45;;;;;;;3.28;2.55;;;;;;;;;;5009563;28;20163;-81
2022/08/23 13:26:27;;;;;;;2.85;2.33;;;;;;;;;;5009989;28;20183;-81
2022/08/23 13:29:04;;;;;;;3.05;2.22;;;;;;;;;;5006272;28;20191;-81
2022/08/23 13:31:48;;;;;;;2.33;2.13;;;;;;;;;;5006423;28;20250;-81
2022/08/23 13:34:32;;;;;;;3.90;2.30;;;;;;;;;;5016100;28;20361;-81
2022/08/23 13:36:58;;;;;;;3.10;2.58;;;;;;;;;;5009499;28;20201;-81
2022/08/23 13:39:23;;;;;;;2.70;2.38;;;;;;;;;;5009122;28;20171;-78
2022/08/23 13:41:48;;;;;;;2.63;2.42;;;;;;;;;;5010415;28;20221;-81
2022/08/23 13:44:17;;;;;;;2.97;2.50;;;;;;;;;;5010494;28;20190;-81
2022/08/23 13:46:44;;;;;;;3.40;2.60;;;;;;;;;;5006209;28;20184;-81
2022/08/23 13:49:20;;;;;;;3.22;2.95;;;;;;;;;;4989976;28;20182;-82
2022/08/23 13:52:07;;;;;;;6.30;2.60;;;;;;;;;;4989709;28;20218;-81
2022/08/23 13:54:32;;;;;;;4.03;2.60;;;;;;;;;;4989340;28;20168;-82
2022/08/23 13:57:04;;;;;;;3.33;2.28;;;;;;;;;;4989531;28;20227;-82
2022/08/23 13:59:29;;;;;;;4.40;2.50;;;;;;;;;;5010048;28;20219;-82
2022/08/23 14:01:55;;;;;;;4.93;2.78;;;;;;;;;;5009603;28;20229;-81
2022/08/23 14:04:20;;;;;;;4.38;2.50;;;;;;;;;;4991392;28;20172;-80
2022/08/23 14:06:45;;;;;;;2.75;2.45;;;;;;;;;;4990661;28;20200;-81
2022/08/23 14:09:11;;;;;;;3.83;2.72;;;;;;;;;;5005715;28;20180;-80
2022/08/23 14:11:36;;;;;;;4.63;2.63;;;;;;;;;;4998033;28;20265;-80
2022/08/23 14:14:02;;;;;;;3.42;2.17;;;;;;;;;;5010256;28;20182;-82
2022/08/23 14:16:33;;;;;;;2.90;2.70;;;;;;;;;;5009495;28;20179;-81
2022/08/23 14:18:58;;;;;;;3.38;2.58;;;;;;;;;;5007696;28;20297;-81
2022/08/23 14:21:24;;;;;;;2.45;2.25;;;;;;;;;;5016645;28;20177;-81
2022/08/23 14:23:49;;;;;;;2.92;2.40;;;;;;;;;;5029600;28;20302;-81
2022/08/23 14:26:16;;;;;;;4.03;2.47;;;;;;;;;;5029988;28;20163;-81
2022/08/23 14:28:42;;;;;;;3.90;2.53;;;;;;;;;;5032707;28;20178;-81
2022/08/23 14:31:07;;;;;;;3.33;2.67;;;;;;;;;;5032476;28;20222;-81
2022/08/23 14:33:32;;;;;;;3.67;2.78;;;;;;;;;;5006468;28;20203;-82
2022/08/23 14:35:57;;;;;;;2.60;2.40;;;;;;;;;;5010747;28;20176;-81
2022/08/23 14:38:23;;;;;;;3.92;2.67;;;;;;;;;;5009012;28;20172;-80
2022/08/23 14:40:52;;;;;;;2.65;2.03;;;;;;;;;;5017773;28;20183;-80
2022/08/23 14:43:19;;;;;;;4.20;2.40;;;;;;;;;;5012347;28;20184;-81
2022/08/23 14:45:44;;;;;;;3.42;2.50;;;;;;;;;;5012384;28;20179;-80
2022/08/23 14:48:09;;;;;;;3.05;2.40;;;;;;;;;;5013578;28;20190;-81
2022/08/23 14:50:35;;;;;;;2.53;2.25;;;;;;;;;;5012506;28;20203;-81
2022/08/23 14:53:01;;;;;;;3.38;2.50;;;;;;;;;;5010049;28;20435;-80
2022/08/23 14:55:27;;;;;;;3.80;2.50;;;;;;;;;;5009320;28;20177;-80
2022/08/23 14:57:52;;;;;;;5.40;2.78;;;;;;;;;;4993851;28;20183;-80
2022/08/23 15:00:17;;;;;;;4.30;2.70;;;;;;;;;;5008668;28;20232;-79